Time;durP1;ratioP1;P1;durP2;ratioP2;P2;SDS_P1;SDS_P2;PMS_P1;PMS_P2;Temp;Humidity;BMP_temperature;BMP_pressure;BME280_temperature;BME280_humidity;BME280_pressure;Samples;Min_cycle;Max_cycle;Signal;HPM_P1;HPM_P2
2023/03/24 00:02:02;;;;;;;3.45;2.20;;;16.70;99.90;;;;;;5093717;28;20215;-58
2023/03/24 00:04:29;;;;;;;4.33;2.17;;;16.70;99.90;;;;;;5093431;28;20236;-59
2023/03/24 00:06:57;;;;;;;2.77;1.60;;;16.70;99.90;;;;;;5093066;28;20208;-58
2023/03/24 00:09:24;;;;;;;2.53;1.73;;;16.70;99.90;;;;;;5093358;28;20603;-59
2023/03/24 00:11:51;;;;;;;3.03;1.87;;;16.70;99.90;;;;;;5093070;28;20261;-58
2023/03/24 00:14:17;;;;;;;3.45;1.75;;;16.70;99.90;;;;;;5092572;28;20234;-58
2023/03/24 00:16:45;;;;;;;2.95;1.80;;;16.70;99.90;;;;;;5092706;28;20566;-58
2023/03/24 00:19:13;;;;;;;2.17;1.73;;;16.70;99.90;;;;;;5093201;28;20204;-56
2023/03/24 00:21:40;;;;;;;3.65;1.60;;;16.70;99.90;;;;;;5093430;28;20257;-56
2023/03/24 00:24:10;;;;;;;3.75;1.70;;;16.70;99.90;;;;;;5092791;28;20224;-58
2023/03/24 00:26:38;;;;;;;2.60;1.60;;;16.70;99.90;;;;;;5092383;28;20296;-58
2023/03/24 00:29:05;;;;;;;2.70;1.60;;;16.70;99.90;;;;;;5092755;28;20604;-58
2023/03/24 00:31:32;;;;;;;2.22;1.50;;;16.70;99.90;;;;;;5092519;28;20208;-58
2023/03/24 00:34:01;;;;;;;4.00;1.50;;;16.70;99.90;;;;;;5093031;28;20231;-62
2023/03/24 00:36:29;;;;;;;4.75;1.40;;;16.70;99.90;;;;;;5093186;28;20251;-57
2023/03/24 00:38:57;;;;;;;2.45;1.55;;;16.70;99.90;;;;;;5093817;28;20287;-57
2023/03/24 00:41:27;;;;;;;2.65;1.60;;;16.70;99.90;;;;;;5093780;28;20230;-57
2023/03/24 00:43:57;;;;;;;4.88;1.80;;;16.70;99.90;;;;;;5094014;28;20235;-57
2023/03/24 00:46:27;;;;;;;2.55;1.55;;;16.70;99.90;;;;;;5093691;28;20228;-57
2023/03/24 00:48:56;;;;;;;2.22;1.63;;;16.70;99.90;;;;;;5093669;28;20692;-58
2023/03/24 00:51:23;;;;;;;3.22;1.50;;;16.70;99.90;;;;;;5093052;28;20676;-57
2023/03/24 00:53:56;;;;;;;2.50;1.60;;;16.70;99.90;;;;;;5093117;28;20310;-57
2023/03/24 00:56:26;;;;;;;2.72;1.60;;;16.70;99.90;;;;;;5093028;28;20220;-56
2023/03/24 00:58:56;;;;;;;2.47;1.65;;;16.70;99.90;;;;;;5093364;28;20208;-57
2023/03/24 01:01:24;;;;;;;2.20;1.50;;;16.70;99.90;;;;;;5093983;28;20265;-57
2023/03/24 01:03:51;;;;;;;2.53;1.57;;;16.70;99.90;;;;;;5093142;28;20239;-57
2023/03/24 01:06:21;;;;;;;4.65;1.90;;;16.70;99.90;;;;;;5093071;28;20572;-57
2023/03/24 01:08:49;;;;;;;2.55;1.50;;;16.70;99.90;;;;;;5093244;28;20561;-57
2023/03/24 01:11:16;;;;;;;2.40;1.45;;;16.70;99.90;;;;;;5092769;28;20568;-57
2023/03/24 01:13:45;;;;;;;2.13;1.80;;;16.70;99.90;;;;;;5092727;28;20277;-58
2023/03/24 01:16:12;;;;;;;2.22;1.65;;;16.70;99.90;;;;;;5092440;28;20704;-58
2023/03/24 01:18:41;;;;;;;2.78;1.40;;;16.70;99.90;;;;;;5092844;28;20200;-58
2023/03/24 01:21:09;;;;;;;4.75;1.70;;;16.80;99.90;;;;;;5092206;28;20258;-57
2023/03/24 01:23:37;;;;;;;2.50;1.33;;;16.80;99.90;;;;;;5092827;28;20247;-58
2023/03/24 01:26:06;;;;;;;1.98;1.40;;;16.80;99.90;;;;;;5092257;28;20203;-58
2023/03/24 01:28:39;;;;;;;2.15;1.60;;;16.70;99.90;;;;;;5096271;28;20215;-57
2023/03/24 01:31:08;;;;;;;3.20;1.70;;;16.70;99.90;;;;;;5096688;28;20209;-57
2023/03/24 01:33:36;;;;;;;1.85;1.50;;;16.70;99.90;;;;;;5096091;28;20216;-58
2023/03/24 01:36:04;;;;;;;2.50;1.52;;;16.70;99.90;;;;;;5096743;28;20261;-58
2023/03/24 01:38:32;;;;;;;3.38;1.58;;;16.70;99.90;;;;;;5096070;28;20209;-58
2023/03/24 01:40:59;;;;;;;1.98;1.60;;;16.70;99.90;;;;;;5096457;28;20417;-58
2023/03/24 01:43:29;;;;;;;2.60;1.58;;;16.60;99.90;;;;;;5096444;28;20204;-59
2023/03/24 01:46:08;;;;;;;1.80;1.40;;;16.70;99.90;;;;;;5095813;28;20664;-58
2023/03/24 01:48:39;;;;;;;2.55;1.42;;;16.60;99.90;;;;;;5096199;28;20214;-58
2023/03/24 01:51:12;;;;;;;2.65;1.70;;;16.60;99.90;;;;;;5096468;28;20222;-58
2023/03/24 01:53:44;;;;;;;3.65;1.92;;;16.60;99.90;;;;;;5096110;28;20235;-58
2023/03/24 01:56:12;;;;;;;3.30;2.13;;;16.70;99.90;;;;;;5096111;28;20608;-59
2023/03/24 01:58:45;;;;;;;2.08;1.67;;;16.80;99.90;;;;;;5096076;28;20206;-58
2023/03/24 02:01:14;;;;;;;2.47;2.05;;;16.80;99.90;;;;;;5096077;28;20204;-57
2023/03/24 02:03:41;;;;;;;1.87;1.70;;;16.80;99.90;;;;;;5096036;28;20608;-58
2023/03/24 02:06:09;;;;;;;2.25;1.42;;;16.90;99.90;;;;;;5095949;28;20208;-58
2023/03/24 02:08:41;;;;;;;2.05;1.67;;;16.80;99.90;;;;;;5096070;28;20295;-58
2023/03/24 02:11:08;;;;;;;4.40;2.00;;;16.80;99.90;;;;;;5095613;28;20211;-58
2023/03/24 02:13:35;;;;;;;3.30;1.40;;;16.80;99.90;;;;;;5095756;28;20224;-58
2023/03/24 02:16:19;;;;;;;2.42;1.80;;;16.90;99.90;;;;;;5095350;28;20227;-58
2023/03/24 02:18:53;;;;;;;3.42;2.28;;;16.80;99.90;;;;;;5095626;28;20209;-59
2023/03/24 02:21:56;;;;;;;2.60;1.90;;;16.80;99.90;;;;;;5095208;28;20626;-58
2023/03/24 02:25:08;;;;;;;2.38;1.83;;;16.90;99.90;;;;;;5095079;28;20259;-58
2023/03/24 02:27:58;;;;;;;3.45;1.90;;;16.90;99.90;;;;;;5058476;28;20672;-59
2023/03/24 02:30:52;;;;;;;5.70;2.90;;;16.80;99.90;;;;;;5094594;28;20220;-58
2023/03/24 02:34:05;;;;;;;2.47;1.70;;;16.90;99.90;;;;;;5094464;28;20222;-59
2023/03/24 02:36:58;;;;;;;1.67;1.48;;;16.90;99.90;;;;;;5094032;28;20300;-58
2023/03/24 02:39:58;;;;;;;2.58;1.75;;;16.90;99.90;;;;;;5093027;28;20569;-60
2023/03/24 02:42:36;;;;;;;3.13;1.50;;;16.90;99.90;;;;;;5091667;28;20208;-58
2023/03/24 02:45:12;;;;;;;1.80;1.38;;;16.90;99.90;;;;;;5094677;28;20227;-58
2023/03/24 02:47:47;;;;;;;2.60;1.50;;;16.80;99.90;;;;;;5094240;28;20200;-58
2023/03/24 02:50:20;;;;;;;5.28;1.40;;;16.80;99.90;;;;;;5094623;28;20200;-58
2023/03/24 02:52:50;;;;;;;2.33;1.27;;;16.80;99.90;;;;;;5094564;28;20216;-59
2023/03/24 02:55:24;;;;;;;1.67;1.45;;;16.80;99.90;;;;;;5094580;28;20228;-59
2023/03/24 02:57:55;;;;;;;2.13;1.30;;;16.80;99.90;;;;;;5094475;28;20200;-58
2023/03/24 03:00:29;;;;;;;2.90;1.23;;;16.80;99.90;;;;;;5094485;28;20291;-58
2023/03/24 03:03:00;;;;;;;2.70;1.60;;;16.80;99.90;;;;;;5093967;28;20208;-58
2023/03/24 03:05:31;;;;;;;2.17;1.35;;;16.80;99.90;;;;;;5094907;28;20235;-57
2023/03/24 03:08:01;;;;;;;2.10;1.30;;;16.80;99.90;;;;;;5094724;28;20704;-57
2023/03/24 03:10:33;;;;;;;3.95;1.42;;;16.80;99.90;;;;;;5094356;28;20218;-57
2023/03/24 03:13:06;;;;;;;1.25;1.13;;;16.80;99.90;;;;;;5094111;28;20222;-57
2023/03/24 03:15:37;;;;;;;1.75;1.20;;;16.90;99.90;;;;;;5093681;28;20231;-58
2023/03/24 03:18:09;;;;;;;2.90;1.40;;;16.90;99.90;;;;;;5094093;28;20220;-58
2023/03/24 03:20:41;;;;;;;1.25;1.15;;;16.80;99.90;;;;;;5093810;28;20207;-58
2023/03/24 03:23:12;;;;;;;2.03;1.45;;;16.90;99.90;;;;;;5093840;28;20212;-58
2023/03/24 03:25:45;;;;;;;1.30;1.17;;;16.90;99.90;;;;;;5093634;28;20215;-58
2023/03/24 03:28:16;;;;;;;3.85;1.60;;;16.90;99.80;;;;;;5093847;28;20216;-57
2023/03/24 03:30:46;;;;;;;2.90;1.40;;;17.00;99.60;;;;;;5094751;28;20698;-58
2023/03/24 03:33:23;;;;;;;1.80;1.38;;;17.00;99.40;;;;;;5094746;28;20563;-59
2023/03/24 03:35:53;;;;;;;1.70;1.20;;;17.10;99.50;;;;;;5094795;28;20208;-58
2023/03/24 03:38:24;;;;;;;2.00;1.23;;;17.10;99.40;;;;;;5094524;28;20664;-62
2023/03/24 03:40:55;;;;;;;2.88;2.00;;;17.20;99.20;;;;;;5094306;28;20212;-58
2023/03/24 03:43:23;;;;;;;2.50;1.45;;;17.20;99.20;;;;;;5093786;28;20277;-57
2023/03/24 03:45:49;;;;;;;1.80;1.50;;;17.20;99.30;;;;;;5093755;28;20671;-58
2023/03/24 03:48:17;;;;;;;1.92;1.30;;;17.20;99.30;;;;;;5094544;28;20204;-58
2023/03/24 03:50:44;;;;;;;2.05;1.15;;;17.20;99.30;;;;;;5093778;28;20550;-58
2023/03/24 03:53:13;;;;;;;1.60;1.40;;;17.20;99.30;;;;;;5093557;28;20204;-57
2023/03/24 03:55:40;;;;;;;3.65;1.30;;;17.10;99.30;;;;;;5093271;28;20731;-59
2023/03/24 03:58:08;;;;;;;2.30;1.15;;;17.10;99.30;;;;;;5093792;28;20694;-59
2023/03/24 04:00:35;;;;;;;1.73;1.30;;;17.20;99.10;;;;;;5093689;28;20207;-58
2023/03/24 04:03:17;;;;;;;1.55;1.35;;;17.20;99.00;;;;;;5093361;28;20208;-58
2023/03/24 04:05:52;;;;;;;1.60;1.20;;;17.20;99.10;;;;;;5092910;28;20208;-58
2023/03/24 04:08:25;;;;;;;2.47;1.23;;;17.20;98.70;;;;;;5093396;28;20318;-58
2023/03/24 04:11:16;;;;;;;8.25;7.18;;;17.10;98.60;;;;;;5093971;28;20208;-59
2023/03/24 04:13:54;;;;;;;2.05;1.48;;;17.10;98.90;;;;;;5093423;28;20220;-59
2023/03/24 04:16:34;;;;;;;2.05;1.25;;;17.10;99.00;;;;;;5093097;28;20230;-58
2023/03/24 04:19:16;;;;;;;2.83;1.63;;;17.00;99.10;;;;;;5093546;28;20216;-57
2023/03/24 04:21:50;;;;;;;2.20;1.45;;;17.10;99.00;;;;;;5093295;28;20200;-57
2023/03/24 04:24:29;;;;;;;1.30;1.20;;;17.00;98.80;;;;;;5092964;28;20224;-58
2023/03/24 04:27:01;;;;;;;3.70;1.70;;;17.00;98.80;;;;;;5092814;28;20220;-58
2023/03/24 04:29:41;;;;;;;1.83;1.60;;;17.10;98.80;;;;;;5092926;28;20690;-58
2023/03/24 04:32:18;;;;;;;2.67;1.48;;;17.00;98.70;;;;;;5092792;28;20736;-58
2023/03/24 04:34:49;;;;;;;2.85;1.15;;;17.00;98.90;;;;;;5092616;28;20226;-58
2023/03/24 04:37:19;;;;;;;4.63;2.58;;;17.00;98.80;;;;;;5092654;28;20285;-58
2023/03/24 04:39:48;;;;;;;1.77;1.33;;;17.10;99.00;;;;;;5093015;28;20204;-57
2023/03/24 04:42:19;;;;;;;3.33;2.03;;;17.00;99.00;;;;;;5092565;28;20797;-58
2023/03/24 04:44:50;;;;;;;2.85;2.00;;;17.00;99.00;;;;;;5092965;28;20654;-57
2023/03/24 04:47:19;;;;;;;4.63;2.72;;;17.00;99.00;;;;;;5092374;28;20229;-56
2023/03/24 04:49:46;;;;;;;1.98;1.65;;;17.10;99.10;;;;;;5093118;28;20238;-57
2023/03/24 04:52:13;;;;;;;3.33;1.50;;;17.10;98.80;;;;;;5093019;28;20208;-58
2023/03/24 04:54:40;;;;;;;3.05;1.52;;;17.10;98.80;;;;;;5092948;28;20220;-58
2023/03/24 04:57:07;;;;;;;3.05;1.45;;;17.00;98.80;;;;;;5092968;28;20216;-57
2023/03/24 04:59:33;;;;;;;2.03;1.55;;;17.10;98.70;;;;;;5093577;28;20214;-57
2023/03/24 05:02:02;;;;;;;1.85;1.55;;;17.10;98.60;;;;;;5094697;28;20231;-57
2023/03/24 05:04:29;;;;;;;1.70;1.38;;;17.10;98.60;;;;;;5097693;28;20410;-58
2023/03/24 05:06:56;;;;;;;2.55;2.00;;;17.10;98.60;;;;;;5097510;28;20196;-58
2023/03/24 05:09:25;;;;;;;2.40;1.65;;;17.10;98.60;;;;;;5097753;28;20214;-58
2023/03/24 05:11:52;;;;;;;2.10;1.40;;;17.10;98.60;;;;;;5097483;28;20303;-59
2023/03/24 05:14:20;;;;;;;4.43;1.50;;;17.10;98.60;;;;;;5097302;28;20224;-59
2023/03/24 05:16:47;;;;;;;1.50;1.13;;;17.20;98.70;;;;;;5097071;28;20228;-57
2023/03/24 05:19:15;;;;;;;2.72;1.20;;;17.20;98.70;;;;;;5097276;28;20291;-57
2023/03/24 05:21:42;;;;;;;3.92;1.50;;;17.30;98.70;;;;;;5096522;28;20295;-58
2023/03/24 05:24:09;;;;;;;1.80;1.42;;;17.30;98.90;;;;;;5096834;28;20254;-57
2023/03/24 05:26:36;;;;;;;2.45;1.50;;;17.30;99.10;;;;;;5096386;28;20581;-58
2023/03/24 05:29:03;;;;;;;3.60;1.58;;;17.30;99.10;;;;;;5096500;28;20302;-58
2023/03/24 05:31:30;;;;;;;2.17;1.60;;;17.40;99.20;;;;;;5096875;28;20217;-59
2023/03/24 05:33:57;;;;;;;1.58;1.48;;;17.40;99.90;;;;;;5096977;28;20227;-58
2023/03/24 05:36:25;;;;;;;3.47;1.60;;;17.40;99.90;;;;;;5096129;28;20219;-58
2023/03/24 05:38:52;;;;;;;2.28;1.60;;;17.30;99.90;;;;;;5096561;28;20682;-59
2023/03/24 05:41:18;;;;;;;2.40;1.30;;;17.30;99.90;;;;;;5096531;28;20212;-59
2023/03/24 05:43:45;;;;;;;2.70;1.63;;;17.20;99.90;;;;;;5096729;28;20220;-59
2023/03/24 05:46:12;;;;;;;3.03;1.73;;;17.10;99.90;;;;;;5096902;28;20208;-60
2023/03/24 05:48:39;;;;;;;2.60;1.90;;;16.90;99.90;;;;;;5096589;28;20235;-58
2023/03/24 05:51:06;;;;;;;3.50;2.13;;;16.80;99.90;;;;;;5096475;28;20215;-58
2023/03/24 05:53:35;;;;;;;5.32;2.10;;;16.70;99.90;;;;;;5096254;28;20227;-57
2023/03/24 05:56:02;;;;;;;5.22;1.92;;;16.70;99.90;;;;;;5097066;28;20300;-59
2023/03/24 05:58:29;;;;;;;3.22;1.95;;;16.60;99.90;;;;;;5096943;28;20231;-56
2023/03/24 06:00:56;;;;;;;2.13;1.80;;;16.60;99.90;;;;;;5096984;28;20230;-57
2023/03/24 06:03:23;;;;;;;3.28;1.95;;;16.60;99.90;;;;;;5096354;28;20200;-57
2023/03/24 06:05:50;;;;;;;3.05;1.92;;;16.60;99.90;;;;;;5096467;28;20207;-57
2023/03/24 06:08:17;;;;;;;3.13;1.88;;;16.60;99.90;;;;;;5096439;28;20211;-59
2023/03/24 06:10:45;;;;;;;2.42;1.83;;;16.60;99.90;;;;;;5095950;28;20204;-58
2023/03/24 06:13:12;;;;;;;4.07;1.98;;;16.60;99.90;;;;;;5095399;28;20205;-59
2023/03/24 06:15:41;;;;;;;3.05;2.03;;;16.50;99.90;;;;;;5095883;28;20232;-58
2023/03/24 06:18:08;;;;;;;3.90;3.10;;;16.50;99.90;;;;;;5095087;28;20277;-58
2023/03/24 06:20:35;;;;;;;3.45;2.83;;;16.50;99.90;;;;;;5095377;28;20672;-58
2023/03/24 06:23:02;;;;;;;4.57;2.40;;;16.40;99.90;;;;;;5095265;28;20203;-58
2023/03/24 06:25:29;;;;;;;3.42;2.35;;;16.40;99.90;;;;;;5095629;28;20212;-58
2023/03/24 06:28:02;;;;;;;2.28;2.08;;;16.40;99.90;;;;;;5095299;28;20215;-58
2023/03/24 06:30:29;;;;;;;1.83;1.70;;;16.40;99.90;;;;;;5096472;28;20204;-59
2023/03/24 06:32:57;;;;;;;2.95;2.35;;;16.40;99.90;;;;;;5096132;28;20204;-59
2023/03/24 06:35:24;;;;;;;2.75;2.10;;;16.40;99.90;;;;;;5096178;28;20229;-59
2023/03/24 06:37:51;;;;;;;2.20;1.92;;;16.40;99.90;;;;;;5095570;28;20236;-59
2023/03/24 06:40:18;;;;;;;2.67;1.93;;;16.40;99.90;;;;;;5096470;28;20266;-59
2023/03/24 06:42:45;;;;;;;5.10;3.27;;;16.40;99.90;;;;;;5096311;28;20204;-60
2023/03/24 06:45:13;;;;;;;3.70;2.40;;;16.40;99.90;;;;;;5096554;28;20232;-60
2023/03/24 06:47:40;;;;;;;2.50;2.23;;;16.40;99.90;;;;;;5095981;28;20207;-59
2023/03/24 06:50:07;;;;;;;2.95;2.25;;;16.20;99.90;;;;;;5095348;28;20261;-59
2023/03/24 06:52:34;;;;;;;5.70;3.47;;;16.20;99.90;;;;;;5095479;28;20668;-59
2023/03/24 06:55:01;;;;;;;5.20;2.90;;;16.20;99.90;;;;;;5095222;28;20220;-58
2023/03/24 06:57:28;;;;;;;3.80;3.00;;;16.20;99.90;;;;;;5095010;28;20215;-59
2023/03/24 06:59:55;;;;;;;4.07;3.03;;;16.20;99.90;;;;;;5095597;28;20204;-59
2023/03/24 07:02:23;;;;;;;3.80;2.57;;;16.30;99.90;;;;;;5094779;28;20205;-58
2023/03/24 07:04:52;;;;;;;3.47;2.77;;;16.30;99.90;;;;;;5094283;28;20239;-58
2023/03/24 07:07:21;;;;;;;3.60;2.50;;;16.30;99.90;;;;;;5094700;28;20208;-59
2023/03/24 07:09:49;;;;;;;3.53;2.20;;;16.40;99.90;;;;;;5094628;28;20212;-58
2023/03/24 07:12:15;;;;;;;2.13;1.93;;;16.40;99.90;;;;;;5094729;28;20204;-59
2023/03/24 07:14:42;;;;;;;4.15;2.35;;;16.40;99.90;;;;;;5094201;28;20234;-58
2023/03/24 07:17:09;;;;;;;3.93;2.60;;;16.40;99.90;;;;;;5093977;28;20227;-59
2023/03/24 07:19:37;;;;;;;2.83;2.03;;;16.40;99.90;;;;;;5094196;28;20210;-62
2023/03/24 07:22:07;;;;;;;1.93;1.73;;;16.40;99.90;;;;;;5092204;28;20214;-63
2023/03/24 07:24:34;;;;;;;3.50;2.00;;;16.40;99.90;;;;;;5092731;28;20263;-58
2023/03/24 07:27:01;;;;;;;2.80;1.98;;;16.30;99.90;;;;;;5092810;28;20234;-58
2023/03/24 07:29:27;;;;;;;3.37;1.87;;;16.30;99.90;;;;;;5093128;28;20208;-58
2023/03/24 07:31:57;;;;;;;2.33;1.80;;;16.30;99.90;;;;;;5092452;28;20212;-57
2023/03/24 07:34:24;;;;;;;3.67;1.90;;;16.30;99.90;;;;;;5092791;28;20319;-58
2023/03/24 07:36:53;;;;;;;2.40;1.80;;;16.20;99.90;;;;;;5093080;28;20263;-59
2023/03/24 07:39:20;;;;;;;2.87;2.03;;;16.10;99.90;;;;;;5092499;28;20579;-59
2023/03/24 07:41:48;;;;;;;2.88;2.47;;;16.10;99.90;;;;;;5092446;28;20212;-58
2023/03/24 07:44:15;;;;;;;4.65;2.03;;;16.10;99.90;;;;;;5092815;28;20220;-58
2023/03/24 07:46:42;;;;;;;5.57;2.03;;;16.10;99.90;;;;;;5092496;28;20250;-57
2023/03/24 07:49:08;;;;;;;3.47;2.07;;;16.10;99.90;;;;;;5092799;28;20204;-56
2023/03/24 07:51:35;;;;;;;2.53;1.85;;;16.00;99.90;;;;;;5092784;28;20204;-56
2023/03/24 07:54:03;;;;;;;3.65;2.70;;;16.00;99.90;;;;;;5092785;28;20235;-58
2023/03/24 07:56:30;;;;;;;2.70;2.15;;;16.10;99.90;;;;;;5094087;28;20208;-63
2023/03/24 07:58:57;;;;;;;2.63;2.17;;;16.00;99.90;;;;;;5094013;28;20227;-59
2023/03/24 08:01:24;;;;;;;2.33;2.00;;;16.00;99.90;;;;;;5093100;28;20212;-60
2023/03/24 08:03:53;;;;;;;3.90;1.80;;;15.80;99.90;;;;;;5093277;28;20236;-59
2023/03/24 08:06:20;;;;;;;4.00;2.00;;;15.80;99.90;;;;;;5092636;28;20232;-59
2023/03/24 08:08:47;;;;;;;1.80;1.63;;;15.90;99.90;;;;;;5093810;28;20204;-59
2023/03/24 08:11:15;;;;;;;2.67;1.90;;;15.80;99.90;;;;;;5092879;28;20242;-58
2023/03/24 08:13:42;;;;;;;2.60;1.90;;;15.80;99.90;;;;;;5093208;28;20220;-57
2023/03/24 08:16:09;;;;;;;3.10;2.10;;;15.80;99.90;;;;;;5092936;28;20676;-58
2023/03/24 08:18:37;;;;;;;4.27;2.33;;;15.70;99.90;;;;;;5093356;28;20768;-58
2023/03/24 08:21:04;;;;;;;3.23;1.90;;;15.70;99.90;;;;;;5093672;28;20545;-59
2023/03/24 08:23:32;;;;;;;3.53;1.87;;;15.80;99.90;;;;;;5093703;28;20654;-59
2023/03/24 08:25:58;;;;;;;2.97;1.80;;;15.80;99.90;;;;;;5094084;28;20609;-60
2023/03/24 08:28:27;;;;;;;4.53;1.87;;;15.90;99.90;;;;;;5093841;28;20207;-60
2023/03/24 08:30:53;;;;;;;5.50;1.80;;;15.90;99.90;;;;;;5094002;28;20199;-59
2023/03/24 08:33:20;;;;;;;2.83;1.77;;;16.00;99.90;;;;;;5093424;28;20200;-59
2023/03/24 08:35:47;;;;;;;3.20;1.63;;;16.00;99.90;;;;;;5093980;28;20200;-59
2023/03/24 08:38:15;;;;;;;3.83;2.03;;;16.20;99.90;;;;;;5094341;28;20220;-59
2023/03/24 08:40:43;;;;;;;3.03;1.70;;;16.20;99.90;;;;;;5094436;28;20208;-59
2023/03/24 08:43:13;;;;;;;5.00;1.90;;;16.30;99.90;;;;;;5094577;28;20239;-62
2023/03/24 08:45:42;;;;;;;4.35;1.95;;;16.30;99.90;;;;;;5094800;28;20193;-60
2023/03/24 08:48:10;;;;;;;3.50;2.13;;;16.50;99.90;;;;;;5093389;28;20729;-61
2023/03/24 08:50:39;;;;;;;3.00;1.65;;;16.60;99.90;;;;;;5094984;28;20230;-60
2023/03/24 08:53:06;;;;;;;2.22;1.80;;;16.60;99.90;;;;;;5094538;28;20453;-60
2023/03/24 08:55:33;;;;;;;3.47;1.65;;;16.70;99.90;;;;;;5095417;28;20224;-61
2023/03/24 08:58:00;;;;;;;3.13;2.00;;;16.60;99.90;;;;;;5095114;28;20228;-61
2023/03/24 09:00:27;;;;;;;2.42;1.73;;;16.70;99.90;;;;;;5094519;28;20234;-58
2023/03/24 09:02:57;;;;;;;4.28;1.77;;;16.70;99.90;;;;;;5094539;28;20295;-58
2023/03/24 09:05:25;;;;;;;2.22;1.65;;;16.80;99.90;;;;;;5094597;28;20263;-59
2023/03/24 09:07:52;;;;;;;2.95;1.90;;;16.90;99.90;;;;;;5094989;28;20268;-60
2023/03/24 09:10:21;;;;;;;3.45;1.63;;;17.00;99.90;;;;;;5094080;28;20244;-58
2023/03/24 09:12:48;;;;;;;2.47;1.67;;;17.10;99.90;;;;;;5094217;28;20654;-59
2023/03/24 09:15:15;;;;;;;2.72;1.83;;;17.20;99.90;;;;;;5093671;28;20220;-60
2023/03/24 09:17:42;;;;;;;1.92;1.73;;;17.20;99.90;;;;;;5093936;28;20664;-63
2023/03/24 09:20:14;;;;;;;2.35;1.70;;;17.30;99.90;;;;;;5095546;28;20223;-61
2023/03/24 09:22:43;;;;;;;1.83;1.40;;;17.20;99.90;;;;;;5095601;28;20695;-61
2023/03/24 09:25:11;;;;;;;3.15;1.80;;;17.20;99.90;;;;;;5092978;28;20247;-61
2023/03/24 09:27:39;;;;;;;3.13;1.67;;;17.20;99.90;;;;;;5092967;28;20715;-61
2023/03/24 09:30:08;;;;;;;3.22;1.58;;;17.40;99.90;;;;;;5093281;28;20261;-61
2023/03/24 09:32:35;;;;;;;4.55;1.58;;;17.40;99.90;;;;;;5093502;28;20573;-59
2023/03/24 09:35:02;;;;;;;2.17;1.60;;;17.30;99.90;;;;;;5092635;28;20248;-58
2023/03/24 09:37:31;;;;;;;3.65;1.90;;;17.30;99.90;;;;;;5091898;28;20216;-58
2023/03/24 09:40:00;;;;;;;2.22;1.80;;;17.20;99.90;;;;;;5092392;28;20542;-60
2023/03/24 09:42:30;;;;;;;2.22;1.67;;;17.10;99.90;;;;;;5092635;28;20258;-61
2023/03/24 09:44:58;;;;;;;2.20;1.80;;;17.10;99.90;;;;;;5091897;28;20791;-60
2023/03/24 09:47:31;;;;;;;3.60;2.03;;;17.00;99.90;;;;;;5091789;28;20289;-61
2023/03/24 09:50:02;;;;;;;2.22;1.80;;;17.00;99.90;;;;;;5096937;28;20204;-61
2023/03/24 09:52:36;;;;;;;3.70;1.80;;;17.10;99.90;;;;;;5096852;28;20286;-60
2023/03/24 09:55:04;;;;;;;2.78;2.08;;;17.30;99.90;;;;;;5095814;28;20252;-59
2023/03/24 09:57:36;;;;;;;1.70;1.60;;;17.70;99.90;;;;;;5094838;28;20204;-59
2023/03/24 10:00:16;;;;;;;3.90;1.98;;;18.10;99.90;;;;;;5095647;28;20211;-59
2023/03/24 10:02:43;;;;;;;1.80;1.50;;;18.50;99.90;;;;;;5095186;28;20200;-59
2023/03/24 10:05:13;;;;;;;2.00;1.50;;;18.50;99.90;;;;;;5095313;28;20344;-59
2023/03/24 10:07:47;;;;;;;4.15;1.65;;;18.50;99.90;;;;;;5095336;28;20579;-59
2023/03/24 10:10:22;;;;;;;2.25;1.48;;;18.70;99.90;;;;;;5095402;28;20219;-58
2023/03/24 10:12:49;;;;;;;2.92;1.50;;;18.90;99.90;;;;;;5095411;28;20207;-59
2023/03/24 10:15:25;;;;;;;1.90;1.60;;;19.00;99.90;;;;;;5095215;28;20239;-59
2023/03/24 10:17:57;;;;;;;2.13;1.40;;;19.30;99.90;;;;;;5095245;28;20298;-59
2023/03/24 10:20:34;;;;;;;3.15;1.17;;;19.70;99.90;;;;;;5095212;28;20230;-59
2023/03/24 10:23:10;;;;;;;2.53;1.80;;;20.10;99.90;;;;;;5095359;28;20218;-59
2023/03/24 10:25:49;;;;;;;2.38;1.30;;;20.50;99.90;;;;;;5094885;28;20729;-59
2023/03/24 10:28:19;;;;;;;1.92;1.42;;;20.70;99.90;;;;;;5094725;28;20211;-59
2023/03/24 10:30:48;;;;;;;1.30;1.20;;;20.80;99.90;;;;;;5094657;28;20668;-59
2023/03/24 10:33:16;;;;;;;3.55;2.88;;;20.80;99.90;;;;;;5094894;28;20261;-59
2023/03/24 10:35:51;;;;;;;2.03;1.40;;;20.60;99.90;;;;;;5095066;28;20200;-59
2023/03/24 10:38:20;;;;;;;1.40;1.20;;;20.40;99.90;;;;;;5094995;28;20265;-59
2023/03/24 10:40:48;;;;;;;2.55;1.08;;;20.60;99.90;;;;;;5095331;28;20286;-59
2023/03/24 10:43:17;;;;;;;2.65;1.60;;;20.40;99.90;;;;;;5094695;28;20200;-59
2023/03/24 10:45:47;;;;;;;1.50;1.30;;;20.20;99.90;;;;;;5095291;28;20235;-59
2023/03/24 10:48:33;;;;;;;1.52;1.30;;;19.90;99.90;;;;;;5095147;28;20200;-59
2023/03/24 10:51:00;;;;;;;2.88;1.63;;;19.70;99.90;;;;;;5094894;28;20207;-59
2023/03/24 10:53:28;;;;;;;1.33;1.20;;;19.70;99.90;;;;;;5094621;28;20208;-59
2023/03/24 10:55:55;;;;;;;1.50;1.30;;;19.70;99.90;;;;;;5094431;28;20208;-59
2023/03/24 10:58:30;;;;;;;4.97;1.65;;;19.80;99.90;;;;;;5094306;28;20303;-59
2023/03/24 11:00:58;;;;;;;1.73;1.30;;;19.90;99.90;;;;;;5093855;28;20633;-59
2023/03/24 11:03:29;;;;;;;1.65;1.20;;;19.80;99.90;;;;;;5094204;28;20208;-60
2023/03/24 11:06:00;;;;;;;1.02;0.90;;;19.90;99.90;;;;;;5094306;28;20215;-59
2023/03/24 11:08:34;;;;;;;3.22;1.23;;;20.00;99.90;;;;;;5093952;28;20200;-59
2023/03/24 11:11:01;;;;;;;1.75;1.02;;;20.10;99.90;;;;;;5095077;28;20212;-58
2023/03/24 11:13:30;;;;;;;1.35;1.23;;;20.00;99.90;;;;;;5094282;28;20214;-59
2023/03/24 11:16:07;;;;;;;3.08;1.80;;;20.10;99.90;;;;;;5094201;28;20311;-58
2023/03/24 11:18:34;;;;;;;2.58;0.95;;;20.30;99.90;;;;;;5093397;28;20701;-58
2023/03/24 11:21:03;;;;;;;2.03;1.10;;;20.30;99.90;;;;;;5094106;28;20694;-59
2023/03/24 11:23:34;;;;;;;8.80;1.08;;;20.50;99.90;;;;;;5094047;28;20206;-58
2023/03/24 11:26:07;;;;;;;2.72;1.00;;;20.60;99.90;;;;;;5093825;28;20561;-58
2023/03/24 11:28:39;;;;;;;5.35;1.02;;;20.70;99.90;;;;;;5093536;28;20208;-58
2023/03/24 11:31:08;;;;;;;2.45;1.05;;;20.80;99.90;;;;;;5093586;28;20266;-59
2023/03/24 11:33:44;;;;;;;1.00;0.80;;;20.90;99.90;;;;;;5093412;28;20234;-58
2023/03/24 11:36:41;;;;;;;1.00;0.88;;;21.00;99.90;;;;;;5093805;28;20299;-58
2023/03/24 11:39:14;;;;;;;2.05;0.90;;;21.00;99.90;;;;;;5093627;28;20220;-59
2023/03/24 11:41:44;;;;;;;1.42;1.00;;;21.20;99.90;;;;;;5093737;28;20205;-59
2023/03/24 11:44:19;;;;;;;1.10;0.70;;;21.20;99.90;;;;;;5093353;28;20235;-59
2023/03/24 11:46:50;;;;;;;3.53;0.70;;;21.40;99.90;;;;;;5093409;28;20204;-59
2023/03/24 11:49:20;;;;;;;2.33;0.82;;;21.40;99.90;;;;;;5093423;28;20210;-60
2023/03/24 11:51:50;;;;;;;1.23;0.70;;;21.40;99.90;;;;;;5093597;28;20208;-58
2023/03/24 11:54:22;;;;;;;4.80;4.30;;;21.30;99.90;;;;;;5093385;28;20615;-58
2023/03/24 11:56:51;;;;;;;1.80;0.90;;;21.20;99.90;;;;;;5093062;28;20208;-58
2023/03/24 11:59:28;;;;;;;2.10;1.00;;;21.20;99.90;;;;;;5093546;28;20227;-60
2023/03/24 12:02:01;;;;;;;1.20;0.80;;;21.20;99.90;;;;;;5093378;28;20207;-58
2023/03/24 12:04:39;;;;;;;0.55;0.50;;;20.90;99.90;;;;;;5093199;28;20262;-57
2023/03/24 12:07:28;;;;;;;2.30;1.08;;;20.80;99.90;;;;;;5093154;28;20227;-58
2023/03/24 12:10:01;;;;;;;0.88;0.73;;;20.40;99.90;;;;;;5093369;28;20204;-58
2023/03/24 12:12:37;;;;;;;2.95;1.13;;;20.10;99.90;;;;;;5092651;28;20574;-58
2023/03/24 12:15:27;;;;;;;1.23;0.90;;;19.90;99.90;;;;;;5092797;28;20224;-58
2023/03/24 12:18:04;;;;;;;2.38;1.60;;;19.70;99.90;;;;;;5092880;28;20215;-58
2023/03/24 12:20:36;;;;;;;1.90;0.60;;;19.50;99.90;;;;;;5092882;28;20228;-58
2023/03/24 12:23:10;;;;;;;1.38;0.52;;;19.40;99.90;;;;;;5092870;28;20204;-58
2023/03/24 12:25:48;;;;;;;5.38;0.75;;;19.40;99.90;;;;;;5092502;28;20614;-58
2023/03/24 12:28:42;;;;;;;3.65;0.88;;;19.50;99.90;;;;;;5092600;28;20208;-59
2023/03/24 12:31:21;;;;;;;2.28;0.65;;;19.70;99.90;;;;;;5093012;28;20231;-58
2023/03/24 12:33:58;;;;;;;1.65;0.60;;;20.10;99.90;;;;;;5092760;28;20235;-59
2023/03/24 12:36:37;;;;;;;1.27;0.75;;;20.40;99.90;;;;;;5092761;28;20214;-59
2023/03/24 12:39:09;;;;;;;5.50;0.90;;;20.50;99.90;;;;;;5092969;28;20425;-58
2023/03/24 12:42:00;;;;;;;2.60;0.68;;;20.60;99.90;;;;;;5093106;28;20282;-58
2023/03/24 12:44:46;;;;;;;1.63;0.70;;;20.40;99.90;;;;;;5092310;28;20220;-59
2023/03/24 12:47:26;;;;;;;1.35;0.90;;;20.10;99.90;;;;;;5092648;28;20204;-57
2023/03/24 12:50:09;;;;;;;4.88;1.10;;;19.70;99.90;;;;;;5092524;28;20196;-57
2023/03/24 12:52:59;;;;;;;0.60;0.50;;;19.50;99.90;;;;;;5092689;28;20215;-58
2023/03/24 12:55:33;;;;;;;1.77;0.40;;;19.30;99.90;;;;;;5092478;28;20319;-58
2023/03/24 12:58:08;;;;;;;1.23;0.50;;;19.20;99.90;;;;;;5092762;28;20574;-57
2023/03/24 13:00:38;;;;;;;0.30;0.30;;;19.10;99.90;;;;;;5092181;28;20220;-58
2023/03/24 13:03:09;;;;;;;0.65;0.40;;;18.90;99.90;;;;;;5092496;28;20214;-58
2023/03/24 13:05:42;;;;;;;0.80;0.50;;;18.80;99.90;;;;;;5092351;28;20350;-58
2023/03/24 13:08:15;;;;;;;0.65;0.50;;;18.70;99.90;;;;;;5092503;28;20286;-58